Time;durP1;ratioP1;P1;durP2;ratioP2;P2;SDS_P1;SDS_P2;PMS_P1;PMS_P2;Temp;Humidity;BMP_temperature;BMP_pressure;BME280_temperature;BME280_humidity;BME280_pressure;Samples;Min_cycle;Max_cycle;Signal;HPM_P1;HPM_P2
2022/08/26 00:01:00;;;;;;;9.90;7.72;;;22.50;99.90;;;;;;2581042;23;20073;-71
2022/08/26 00:02:01;;;;;;;8.00;7.20;;;22.50;99.90;;;;;;2595209;22;20352;-71
2022/08/26 00:03:02;;;;;;;8.38;7.57;;;22.50;99.90;;;;;;2595185;22;20442;-71
2022/08/26 00:04:03;;;;;;;8.93;8.00;;;22.50;99.90;;;;;;2595384;22;20019;-71
2022/08/26 00:05:03;;;;;;;8.00;7.03;;;22.50;99.90;;;;;;2595367;22;20313;-71
2022/08/26 00:06:05;;;;;;;8.07;7.28;;;22.50;99.90;;;;;;2595010;22;20006;-71
2022/08/26 00:07:06;;;;;;;8.27;7.47;;;22.50;99.90;;;;;;2595429;22;20003;-71
2022/08/26 00:08:07;;;;;;;7.97;7.28;;;22.50;99.90;;;;;;2595352;22;20004;-71
2022/08/26 00:09:08;;;;;;;7.70;7.00;;;22.50;99.90;;;;;;2594964;22;20007;-71
2022/08/26 00:10:10;;;;;;;8.02;7.25;;;22.50;99.90;;;;;;2595450;22;20004;-71
2022/08/26 00:11:11;;;;;;;9.63;7.78;;;22.50;99.90;;;;;;2595576;22;20007;-71
2022/08/26 00:12:12;;;;;;;8.15;7.28;;;22.40;99.90;;;;;;2595255;22;20439;-71
2022/08/26 00:13:13;;;;;;;8.68;7.55;;;22.40;99.90;;;;;;2594494;22;20075;-71
2022/08/26 00:14:15;;;;;;;10.07;7.50;;;22.40;99.90;;;;;;2595394;22;20000;-71
2022/08/26 00:15:18;;;;;;;8.90;7.75;;;22.40;99.90;;;;;;2595261;22;20004;-71
2022/08/26 00:16:19;;;;;;;8.60;7.70;;;22.40;99.90;;;;;;2594471;22;20006;-71
2022/08/26 00:17:19;;;;;;;7.88;7.18;;;22.40;99.90;;;;;;2595003;22;20004;-71
2022/08/26 00:18:20;;;;;;;8.85;7.82;;;22.40;99.90;;;;;;2595624;22;20069;-71
2022/08/26 00:19:21;;;;;;;8.27;7.57;;;22.40;99.90;;;;;;2595012;22;20327;-71
2022/08/26 00:20:30;;;;;;;7.68;6.97;;;22.40;99.90;;;;;;2595597;22;20026;-71
2022/08/26 00:21:30;;;;;;;8.65;7.35;;;22.40;99.90;;;;;;2595541;22;20004;-71
2022/08/26 00:22:31;;;;;;;8.88;7.97;;;22.40;99.90;;;;;;2595357;22;20161;-71
2022/08/26 00:23:33;;;;;;;8.32;7.53;;;22.40;99.90;;;;;;2595188;22;20011;-71
2022/08/26 00:24:33;;;;;;;9.55;7.60;;;22.40;99.90;;;;;;2595242;22;20023;-71
2022/08/26 00:25:34;;;;;;;9.90;7.50;;;22.40;99.90;;;;;;2595171;22;20031;-71
2022/08/26 00:26:35;;;;;;;8.48;7.70;;;22.40;99.90;;;;;;2595292;22;20395;-71
2022/08/26 00:27:35;;;;;;;9.02;8.27;;;22.40;99.90;;;;;;2594757;22;20049;-71
2022/08/26 00:28:36;;;;;;;9.55;8.70;;;22.30;99.90;;;;;;2595485;22;19999;-71
2022/08/26 00:29:36;;;;;;;9.65;7.57;;;22.30;99.90;;;;;;2595128;22;20047;-71
2022/08/26 00:30:37;;;;;;;9.68;7.75;;;22.30;99.90;;;;;;2595260;22;20007;-71
2022/08/26 00:31:39;;;;;;;8.18;7.47;;;22.30;99.90;;;;;;2595407;22;20000;-71
2022/08/26 00:32:40;;;;;;;8.77;7.97;;;22.30;99.90;;;;;;2595276;22;20007;-71
2022/08/26 00:33:40;;;;;;;7.97;7.18;;;22.30;99.90;;;;;;2581317;23;20008;-71
2022/08/26 00:34:41;;;;;;;7.93;6.85;;;22.30;99.90;;;;;;2582043;23;19996;-71
2022/08/26 00:35:41;;;;;;;8.75;7.88;;;22.30;99.90;;;;;;2595093;22;20003;-71
2022/08/26 00:36:42;;;;;;;7.97;6.93;;;22.30;99.90;;;;;;2595109;22;20061;-71
2022/08/26 00:37:44;;;;;;;10.15;8.00;;;22.30;99.90;;;;;;2595811;22;20500;-71
2022/08/26 00:38:44;;;;;;;9.10;8.38;;;22.30;99.90;;;;;;2595138;22;20358;-71
2022/08/26 00:39:45;;;;;;;8.07;7.20;;;22.30;99.90;;;;;;2595140;22;20007;-71
2022/08/26 00:40:51;;;;;;;8.80;8.00;;;22.30;99.90;;;;;;2595089;22;20030;-71
2022/08/26 00:41:52;;;;;;;9.05;8.15;;;22.30;99.90;;;;;;2595358;22;20007;-71
2022/08/26 00:42:53;;;;;;;7.32;6.60;;;22.30;99.90;;;;;;2595190;22;20004;-72
2022/08/26 00:43:53;;;;;;;8.38;7.55;;;22.30;99.90;;;;;;2594829;22;20053;-71
2022/08/26 00:44:54;;;;;;;8.55;7.80;;;22.20;99.90;;;;;;2595080;22;20004;-71
2022/08/26 00:46:03;;;;;;;8.15;7.45;;;22.20;99.90;;;;;;2595591;22;20557;-71
2022/08/26 00:47:08;;;;;;;8.75;7.45;;;22.20;99.90;;;;;;2595104;22;20010;-71
2022/08/26 00:48:10;;;;;;;8.77;7.97;;;22.20;99.90;;;;;;2595483;22;20034;-71
2022/08/26 00:49:18;;;;;;;8.43;7.68;;;22.20;99.90;;;;;;2595420;22;20010;-71
2022/08/26 00:50:28;;;;;;;7.70;7.00;;;22.20;99.90;;;;;;2595277;22;20024;-71
2022/08/26 00:51:29;;;;;;;8.75;7.97;;;22.20;99.90;;;;;;2595561;22;20000;-71
2022/08/26 00:52:30;;;;;;;8.02;7.32;;;22.20;99.90;;;;;;2595118;22;20010;-71
2022/08/26 00:53:35;;;;;;;8.90;7.80;;;22.20;99.90;;;;;;2594858;22;20008;-71
2022/08/26 00:54:44;;;;;;;8.20;7.40;;;22.20;99.90;;;;;;2595186;22;20406;-71
2022/08/26 00:55:44;;;;;;;8.82;8.02;;;22.20;99.90;;;;;;2595013;22;20371;-71
2022/08/26 00:56:59;;;;;;;8.45;6.97;;;22.20;99.90;;;;;;2595355;22;20011;-71
2022/08/26 00:58:01;;;;;;;8.73;7.82;;;22.20;99.90;;;;;;2595127;22;20430;-71
2022/08/26 00:59:06;;;;;;;8.48;7.68;;;22.10;99.90;;;;;;2595295;22;20697;-71
2022/08/26 01:00:14;;;;;;;8.43;7.63;;;22.10;99.90;;;;;;2595432;22;20057;-71
2022/08/26 01:01:16;;;;;;;10.02;8.43;;;22.10;99.90;;;;;;2595017;22;20439;-72
2022/08/26 01:02:17;;;;;;;8.60;7.28;;;22.10;99.90;;;;;;2594928;22;20046;-72
2022/08/26 01:03:23;;;;;;;8.00;7.30;;;22.10;99.90;;;;;;2595016;22;20054;-72
2022/08/26 01:04:23;;;;;;;10.18;7.72;;;22.10;99.90;;;;;;2581382;23;20603;-72
2022/08/26 01:05:24;;;;;;;8.70;7.40;;;22.10;99.90;;;;;;2581822;23;20408;-72
2022/08/26 01:06:26;;;;;;;8.23;7.43;;;22.10;99.90;;;;;;2581472;23;20008;-72
2022/08/26 01:07:29;;;;;;;8.55;7.85;;;22.10;99.90;;;;;;2581759;22;20079;-72
2022/08/26 01:08:30;;;;;;;8.52;7.68;;;22.10;99.90;;;;;;2595355;22;20011;-72
2022/08/26 01:09:31;;;;;;;9.52;8.73;;;22.10;99.90;;;;;;2595374;22;20493;-72
2022/08/26 01:10:31;;;;;;;7.95;7.32;;;22.00;99.90;;;;;;2594610;22;20026;-72
2022/08/26 01:11:32;;;;;;;9.48;8.45;;;22.10;99.90;;;;;;2595134;22;20012;-72
2022/08/26 01:12:39;;;;;;;8.75;7.47;;;22.00;99.90;;;;;;2581335;23;20096;-72
2022/08/26 01:13:41;;;;;;;8.70;7.88;;;22.00;99.90;;;;;;2569071;23;20004;-72
2022/08/26 01:14:41;;;;;;;9.43;8.40;;;22.00;99.90;;;;;;2581810;22;20379;-72
2022/08/26 01:15:46;;;;;;;9.20;8.30;;;22.00;99.90;;;;;;2594746;22;20008;-72
2022/08/26 01:16:47;;;;;;;8.82;7.93;;;22.00;99.90;;;;;;2594947;22;20003;-72
2022/08/26 01:17:48;;;;;;;10.07;8.85;;;22.00;99.90;;;;;;2595211;22;20312;-72
2022/08/26 01:18:52;;;;;;;10.80;7.72;;;22.00;99.90;;;;;;2595136;22;20004;-72
2022/08/26 01:20:05;;;;;;;8.98;8.07;;;22.00;99.90;;;;;;2595133;22;20007;-72
2022/08/26 01:21:19;;;;;;;9.07;8.18;;;22.00;99.90;;;;;;2581700;23;20123;-72
2022/08/26 01:22:25;;;;;;;7.97;7.28;;;22.00;99.90;;;;;;2584535;22;20062;-71
2022/08/26 01:23:34;;;;;;;8.15;7.45;;;21.90;99.90;;;;;;2594861;22;20031;-71
2022/08/26 01:24:36;;;;;;;8.70;7.55;;;21.90;99.90;;;;;;2595116;22;20676;-71
2022/08/26 01:25:53;;;;;;;7.95;7.18;;;21.90;99.90;;;;;;2594620;22;20030;-71
2022/08/26 01:27:02;;;;;;;8.80;8.00;;;21.90;99.90;;;;;;2594859;22;20004;-72
2022/08/26 01:28:07;;;;;;;8.88;7.97;;;21.90;99.90;;;;;;2595340;22;20004;-72
2022/08/26 01:29:11;;;;;;;8.23;7.38;;;21.90;99.90;;;;;;2581744;23;20012;-72
2022/08/26 01:30:13;;;;;;;9.05;7.80;;;21.90;99.90;;;;;;2582188;22;20100;-72
2022/08/26 01:31:17;;;;;;;9.05;8.20;;;21.90;99.90;;;;;;2595208;22;20093;-72
2022/08/26 01:32:21;;;;;;;8.38;7.57;;;21.90;99.90;;;;;;2594743;22;19999;-72
2022/08/26 01:33:28;;;;;;;9.25;7.60;;;21.90;99.90;;;;;;2594825;22;20027;-71
2022/08/26 01:34:33;;;;;;;9.13;8.10;;;21.90;99.90;;;;;;2595028;22;19996;-71
2022/08/26 01:35:36;;;;;;;10.65;7.80;;;21.90;99.90;;;;;;2595273;22;20079;-72
2022/08/26 01:36:38;;;;;;;10.25;8.63;;;21.90;99.90;;;;;;2594992;22;20093;-72
2022/08/26 01:37:39;;;;;;;9.25;8.35;;;21.90;99.90;;;;;;2595057;22;20435;-72
2022/08/26 01:38:40;;;;;;;8.85;7.72;;;21.90;99.90;;;;;;2595246;22;20026;-72
2022/08/26 01:39:43;;;;;;;9.45;8.55;;;21.90;99.90;;;;;;2594976;22;20025;-72
2022/08/26 01:40:44;;;;;;;9.48;8.13;;;21.90;99.90;;;;;;2594527;22;20062;-72
2022/08/26 01:41:47;;;;;;;8.82;7.90;;;21.80;99.90;;;;;;2581704;23;20091;-72
2022/08/26 01:42:48;;;;;;;8.52;7.68;;;21.80;99.90;;;;;;2569410;23;20448;-72
2022/08/26 01:43:53;;;;;;;8.45;7.65;;;21.80;99.90;;;;;;2581434;22;20408;-72
2022/08/26 01:45:17;;;;;;;9.07;7.75;;;21.80;99.90;;;;;;2594286;22;20331;-72
2022/08/26 01:46:21;;;;;;;9.65;7.93;;;21.80;99.90;;;;;;2595098;22;20039;-72
2022/08/26 01:47:24;;;;;;;9.48;8.63;;;21.80;99.90;;;;;;2595125;22;20070;-72
2022/08/26 01:48:34;;;;;;;9.00;8.10;;;21.80;99.90;;;;;;2580967;23;20468;-72
2022/08/26 01:49:35;;;;;;;8.90;8.00;;;21.80;99.90;;;;;;2583719;22;20325;-72
2022/08/26 01:50:38;;;;;;;9.07;8.25;;;21.80;99.90;;;;;;2594928;22;19996;-72
2022/08/26 01:51:39;;;;;;;9.95;8.18;;;21.70;99.90;;;;;;2593759;22;20027;-72
2022/08/26 01:52:43;;;;;;;8.52;7.72;;;21.70;99.90;;;;;;2595083;22;20671;-72
2022/08/26 01:53:44;;;;;;;9.48;8.50;;;21.80;99.90;;;;;;2594403;22;20003;-71
2022/08/26 01:54:45;;;;;;;10.18;8.93;;;21.70;99.90;;;;;;2594967;22;20023;-71
2022/08/26 01:55:50;;;;;;;8.25;7.45;;;21.70;99.90;;;;;;2594311;22;20372;-72
2022/08/26 01:56:54;;;;;;;9.73;8.80;;;21.70;99.90;;;;;;2581811;23;20494;-72
2022/08/26 01:57:56;;;;;;;9.10;8.30;;;21.70;99.90;;;;;;2582446;22;19996;-72
2022/08/26 01:58:59;;;;;;;10.32;8.77;;;21.70;99.90;;;;;;2594699;22;20293;-72
2022/08/26 02:00:01;;;;;;;8.63;7.68;;;21.70;99.90;;;;;;2594734;22;19992;-72
2022/08/26 02:01:04;;;;;;;10.05;9.05;;;21.70;99.90;;;;;;2594648;22;19999;-72
2022/08/26 02:02:04;;;;;;;9.60;8.50;;;21.70;99.90;;;;;;2581476;23;20004;-72
2022/08/26 02:03:20;;;;;;;8.85;8.05;;;21.70;99.90;;;;;;2581252;23;20104;-72
2022/08/26 02:04:29;;;;;;;9.52;8.23;;;21.70;99.90;;;;;;2594881;22;20007;-72
2022/08/26 02:05:30;;;;;;;11.07;9.02;;;21.70;99.90;;;;;;2595016;22;20340;-72
2022/08/26 02:06:31;;;;;;;11.15;8.50;;;21.60;99.90;;;;;;2581256;23;20026;-72
2022/08/26 02:07:32;;;;;;;11.10;7.82;;;21.60;99.90;;;;;;2581545;22;20011;-72
2022/08/26 02:08:43;;;;;;;11.15;8.75;;;21.60;99.90;;;;;;2594762;22;20014;-72
2022/08/26 02:09:44;;;;;;;9.77;8.77;;;21.70;99.90;;;;;;2594707;22;20022;-72
2022/08/26 02:10:44;;;;;;;10.15;9.05;;;21.60;99.90;;;;;;2594696;22;20010;-72
2022/08/26 02:11:46;;;;;;;10.00;8.93;;;21.60;99.90;;;;;;2595020;22;20080;-72
2022/08/26 02:12:47;;;;;;;10.10;9.10;;;21.60;99.90;;;;;;2595008;22;20000;-72
2022/08/26 02:13:52;;;;;;;9.70;8.77;;;21.60;99.90;;;;;;2594523;22;20583;-72
2022/08/26 02:14:59;;;;;;;12.93;8.30;;;21.60;99.90;;;;;;2595068;22;20027;-72
2022/08/26 02:16:02;;;;;;;9.40;8.13;;;21.50;99.90;;;;;;2594561;22;20003;-72
2022/08/26 02:17:03;;;;;;;8.75;7.95;;;21.50;99.90;;;;;;2594453;22;20335;-72
2022/08/26 02:18:04;;;;;;;10.25;8.52;;;21.50;99.90;;;;;;2594585;22;20003;-72
2022/08/26 02:19:09;;;;;;;9.50;8.70;;;21.50;99.90;;;;;;2595184;22;20077;-72
2022/08/26 02:20:14;;;;;;;9.88;8.93;;;21.50;99.90;;;;;;2581510;23;20028;-72
2022/08/26 02:21:16;;;;;;;8.93;8.07;;;21.50;99.90;;;;;;2582039;22;20000;-72
2022/08/26 02:22:19;;;;;;;9.68;8.75;;;21.50;99.90;;;;;;2595187;22;20124;-72
2022/08/26 02:23:20;;;;;;;9.07;8.18;;;21.50;99.90;;;;;;2594111;22;20000;-71
2022/08/26 02:24:28;;;;;;;10.80;9.18;;;21.50;99.90;;;;;;2594637;22;20458;-72
2022/08/26 02:25:44;;;;;;;9.60;8.45;;;21.50;99.90;;;;;;2594836;22;20008;-72
2022/08/26 02:26:46;;;;;;;11.20;8.90;;;21.50;99.90;;;;;;2595173;22;19999;-72
2022/08/26 02:27:47;;;;;;;10.57;8.70;;;21.50;99.90;;;;;;2594691;22;20428;-72
2022/08/26 02:29:17;;;;;;;12.18;9.20;;;21.50;99.90;;;;;;2594947;22;20396;-72
2022/08/26 02:30:24;;;;;;;9.80;8.77;;;21.40;99.90;;;;;;2581247;23;20003;-72
2022/08/26 02:31:25;;;;;;;9.70;8.77;;;21.40;99.90;;;;;;2570225;23;20004;-71
2022/08/26 02:32:25;;;;;;;11.20;10.10;;;21.40;99.90;;;;;;2580983;23;20004;-72
2022/08/26 02:33:27;;;;;;;11.95;10.48;;;21.40;99.90;;;;;;2594295;22;20000;-72
2022/08/26 02:34:31;;;;;;;9.90;8.90;;;21.40;99.90;;;;;;2595331;22;20308;-71
2022/08/26 02:35:33;;;;;;;12.75;9.25;;;21.40;99.90;;;;;;2581510;23;20077;-72
2022/08/26 02:36:34;;;;;;;11.00;9.82;;;21.40;99.90;;;;;;2581706;22;20046;-72
2022/08/26 02:37:34;;;;;;;10.70;9.60;;;21.40;99.90;;;;;;2581134;23;20046;-72
2022/08/26 02:38:35;;;;;;;9.57;8.45;;;21.40;99.90;;;;;;2581551;23;20078;-72
2022/08/26 02:39:39;;;;;;;9.75;8.85;;;21.40;99.90;;;;;;2594960;22;20020;-72
2022/08/26 02:40:41;;;;;;;10.05;8.90;;;21.30;99.90;;;;;;2594757;22;20442;-72
2022/08/26 02:41:43;;;;;;;12.10;8.88;;;21.30;99.90;;;;;;2595073;22;20319;-72
2022/08/26 02:42:43;;;;;;;10.23;9.23;;;21.30;99.90;;;;;;2595161;22;19996;-72
2022/08/26 02:43:44;;;;;;;11.93;9.60;;;21.30;99.90;;;;;;2594352;22;20078;-72
2022/08/26 02:44:44;;;;;;;13.50;10.02;;;21.40;99.90;;;;;;2594810;22;19996;-72
2022/08/26 02:45:45;;;;;;;11.20;9.25;;;21.30;99.90;;;;;;2594467;22;20002;-72
2022/08/26 02:46:47;;;;;;;9.52;8.73;;;21.30;99.90;;;;;;2594659;22;19996;-72
2022/08/26 02:47:48;;;;;;;12.48;10.13;;;21.30;99.90;;;;;;2594907;22;19991;-72
2022/08/26 02:48:49;;;;;;;8.93;8.15;;;21.30;99.90;;;;;;2594335;22;20007;-72
2022/08/26 02:49:49;;;;;;;10.68;9.68;;;21.30;99.90;;;;;;2595002;22;20090;-72
2022/08/26 02:50:50;;;;;;;11.23;10.07;;;21.30;99.90;;;;;;2581568;23;20000;-72
2022/08/26 02:51:51;;;;;;;10.07;9.07;;;21.30;99.90;;;;;;2581200;23;20569;-72
2022/08/26 02:52:52;;;;;;;10.63;9.73;;;21.30;99.90;;;;;;2594707;22;20022;-72
2022/08/26 02:53:53;;;;;;;10.82;9.73;;;21.30;99.90;;;;;;2594256;22;20003;-72
2022/08/26 02:54:53;;;;;;;10.10;9.10;;;21.30;99.90;;;;;;2594656;22;20000;-72
2022/08/26 02:55:54;;;;;;;10.40;8.90;;;21.30;99.90;;;;;;2580908;23;20424;-72
2022/08/26 02:56:55;;;;;;;11.45;10.35;;;21.30;99.90;;;;;;2580911;23;20011;-72
2022/08/26 02:57:55;;;;;;;14.68;12.07;;;21.30;99.90;;;;;;2594828;22;20320;-72
2022/08/26 02:58:56;;;;;;;16.70;12.52;;;21.20;99.90;;;;;;2594839;22;20000;-72
2022/08/26 02:59:58;;;;;;;13.88;11.85;;;21.20;99.90;;;;;;2594794;22;20581;-72
2022/08/26 03:00:59;;;;;;;11.30;10.20;;;21.30;99.90;;;;;;2594767;22;20002;-72
2022/08/26 03:02:00;;;;;;;13.77;12.20;;;21.20;99.90;;;;;;2594851;22;20002;-72
2022/08/26 03:03:01;;;;;;;12.05;10.95;;;21.20;99.90;;;;;;2594186;22;19999;-72
2022/08/26 03:04:03;;;;;;;17.10;12.82;;;21.20;99.90;;;;;;2594814;22;20261;-72
2022/08/26 03:05:05;;;;;;;14.68;13.25;;;21.20;99.90;;;;;;2594527;22;20004;-72
2022/08/26 03:06:05;;;;;;;15.10;13.52;;;21.20;99.90;;;;;;2580888;23;20427;-72
2022/08/26 03:07:06;;;;;;;16.40;13.13;;;21.20;99.90;;;;;;2581505;23;20007;-72
2022/08/26 03:08:10;;;;;;;14.18;12.75;;;21.20;99.90;;;;;;2594562;22;20024;-72
2022/08/26 03:09:11;;;;;;;14.68;13.23;;;21.20;99.90;;;;;;2594877;22;19996;-72
2022/08/26 03:10:12;;;;;;;14.30;12.95;;;21.20;99.90;;;;;;2594474;22;20026;-72
2022/08/26 03:11:13;;;;;;;24.50;22.15;;;21.20;99.90;;;;;;2594708;22;20034;-72
2022/08/26 03:12:13;;;;;;;30.67;26.63;;;21.20;99.90;;;;;;2594959;22;20007;-72
2022/08/26 03:13:14;;;;;;;24.15;21.75;;;21.20;99.90;;;;;;2594185;22;20006;-72
2022/08/26 03:14:14;;;;;;;26.05;23.58;;;21.20;99.90;;;;;;2594644;22;20008;-72
2022/08/26 03:15:16;;;;;;;27.58;24.88;;;21.20;99.90;;;;;;2594676;22;20078;-71
2022/08/26 03:16:17;;;;;;;35.22;31.90;;;21.20;99.90;;;;;;2594066;22;20424;-71
2022/08/26 03:17:18;;;;;;;33.83;30.35;;;21.20;99.90;;;;;;2594715;22;20463;-71
2022/08/26 03:18:18;;;;;;;29.95;26.95;;;21.20;99.90;;;;;;2594539;22;20012;-71
2022/08/26 03:19:21;;;;;;;35.97;32.38;;;21.20;99.90;;;;;;2594500;22;20495;-71
2022/08/26 03:20:22;;;;;;;25.17;22.90;;;21.20;99.90;;;;;;2594963;22;20008;-72
2022/08/26 03:21:22;;;;;;;30.65;27.65;;;21.10;99.90;;;;;;2594721;22;20003;-72
2022/08/26 03:22:24;;;;;;;27.20;24.52;;;21.20;99.90;;;;;;2594392;22;20070;-72
2022/08/26 03:23:24;;;;;;;26.65;24.23;;;21.10;99.90;;;;;;2594398;22;20003;-71
2022/08/26 03:24:25;;;;;;;23.45;21.20;;;21.10;99.90;;;;;;2594354;22;20027;-72
2022/08/26 03:25:26;;;;;;;27.95;25.27;;;21.10;99.90;;;;;;2580922;23;20059;-72
2022/08/26 03:26:27;;;;;;;22.80;20.60;;;21.10;99.90;;;;;;2580736;23;20052;-72
2022/08/26 03:27:28;;;;;;;27.25;24.83;;;21.10;99.90;;;;;;2594745;22;20578;-71
2022/08/26 03:28:29;;;;;;;38.63;35.00;;;21.10;99.90;;;;;;2594832;22;20301;-71
2022/08/26 03:30:49;;;;;;;37.72;34.00;;;21.10;99.90;;;;;;2594609;22;20015;-71
2022/08/26 03:31:49;;;;;;;40.92;37.33;;;21.10;99.90;;;;;;2594576;22;20018;-71
2022/08/26 03:32:50;;;;;;;31.92;28.90;;;21.10;99.90;;;;;;2594356;22;20423;-72
2022/08/26 03:33:51;;;;;;;35.10;31.70;;;21.10;99.90;;;;;;2594096;22;19992;-72
2022/08/26 03:34:51;;;;;;;40.05;36.10;;;21.10;99.90;;;;;;2594525;22;19996;-72
2022/08/26 03:35:53;;;;;;;42.97;38.85;;;21.10;99.90;;;;;;2594496;22;20675;-72
2022/08/26 03:36:54;;;;;;;48.65;43.95;;;21.10;99.90;;;;;;2594042;22;20003;-72
2022/08/26 03:37:54;;;;;;;38.33;34.55;;;21.10;99.90;;;;;;2594795;22;20006;-72
2022/08/26 03:38:55;;;;;;;44.45;40.20;;;21.10;99.90;;;;;;2594443;22;20008;-72
2022/08/26 03:39:55;;;;;;;48.58;44.10;;;21.10;99.90;;;;;;2594872;22;20026;-72
2022/08/26 03:40:56;;;;;;;43.03;39.03;;;21.10;99.90;;;;;;2594681;22;20004;-71
2022/08/26 03:41:57;;;;;;;56.35;51.08;;;21.10;99.90;;;;;;2594342;22;20079;-71
2022/08/26 03:42:59;;;;;;;60.17;54.42;;;21.10;99.90;;;;;;2594173;22;20074;-71
2022/08/26 03:43:59;;;;;;;35.03;31.80;;;21.10;99.90;;;;;;2594808;22;20328;-71
2022/08/26 03:45:00;;;;;;;42.10;38.22;;;21.10;99.90;;;;;;2594689;22;20026;-72
2022/08/26 03:46:05;;;;;;;54.95;49.80;;;21.10;99.90;;;;;;2594336;22;20003;-72
2022/08/26 03:47:06;;;;;;;51.53;46.63;;;21.10;99.90;;;;;;2593992;22;20057;-72
2022/08/26 03:48:07;;;;;;;54.15;49.05;;;21.10;99.90;;;;;;2594684;22;20045;-72
2022/08/26 03:49:08;;;;;;;45.85;41.55;;;21.10;99.90;;;;;;2594586;22;20476;-71
2022/08/26 03:50:11;;;;;;;43.88;39.80;;;21.10;99.90;;;;;;2594707;22;20331;-71
2022/08/26 03:51:14;;;;;;;54.55;49.42;;;21.10;99.90;;;;;;2594451;22;20000;-71
2022/08/26 03:52:14;;;;;;;45.20;40.92;;;21.10;99.90;;;;;;2594175;22;20016;-71
2022/08/26 03:53:15;;;;;;;53.90;48.90;;;21.10;99.90;;;;;;2594170;22;20008;-71
2022/08/26 03:54:15;;;;;;;60.80;55.28;;;21.10;99.90;;;;;;2594650;22;20087;-71
2022/08/26 03:55:17;;;;;;;52.67;47.80;;;21.10;99.90;;;;;;2581050;23;20456;-71
2022/08/26 03:56:18;;;;;;;60.35;54.75;;;21.10;99.90;;;;;;2580868;22;20005;-72
2022/08/26 03:57:18;;;;;;;61.17;55.38;;;21.10;99.90;;;;;;2594200;22;20032;-72
2022/08/26 03:58:20;;;;;;;50.83;46.00;;;21.20;99.90;;;;;;2594346;22;20000;-72
2022/08/26 03:59:21;;;;;;;56.60;51.28;;;21.10;99.90;;;;;;2580918;23;20008;-72
2022/08/26 04:00:21;;;;;;;63.83;57.80;;;21.20;99.90;;;;;;2581077;23;20005;-72
2022/08/26 04:01:22;;;;;;;67.32;61.38;;;21.20;99.90;;;;;;2581224;23;20015;-72
2022/08/26 04:02:23;;;;;;;67.68;61.15;;;21.20;99.90;;;;;;2580865;22;20000;-72
2022/08/26 04:04:44;;;;;;;64.25;58.10;;;21.20;99.90;;;;;;2594924;22;20008;-72
2022/08/26 04:05:44;;;;;;;66.85;59.95;;;21.10;99.90;;;;;;2593006;22;20007;-72
2022/08/26 04:06:45;;;;;;;61.83;55.60;;;21.20;99.90;;;;;;2594094;22;19996;-72
2022/08/26 04:07:46;;;;;;;58.53;53.33;;;21.20;99.90;;;;;;2580576;23;20012;-71
2022/08/26 04:08:46;;;;;;;67.00;60.60;;;21.20;99.90;;;;;;2581066;22;20035;-71
2022/08/26 04:09:47;;;;;;;64.28;58.35;;;21.20;99.90;;;;;;2594511;22;20387;-72
2022/08/26 04:10:48;;;;;;;66.50;60.13;;;21.20;99.90;;;;;;2594491;22;20098;-72
2022/08/26 04:11:48;;;;;;;71.15;64.40;;;21.20;99.90;;;;;;2594453;22;19996;-72
2022/08/26 04:12:50;;;;;;;69.10;62.50;;;21.20;99.90;;;;;;2594636;22;20716;-72
2022/08/26 04:13:51;;;;;;;69.53;63.20;;;21.20;99.90;;;;;;2594184;22;20045;-72
2022/08/26 04:14:51;;;;;;;72.10;65.40;;;21.20;99.90;;;;;;2594475;22;20074;-72
2022/08/26 04:15:52;;;;;;;71.85;64.93;;;21.20;99.90;;;;;;2594448;22;20030;-72
2022/08/26 04:16:54;;;;;;;68.68;62.17;;;21.20;99.90;;;;;;2580649;23;20015;-72
2022/08/26 04:17:54;;;;;;;73.70;66.72;;;21.20;99.90;;;;;;2581047;22;20079;-72
2022/08/26 04:18:56;;;;;;;69.50;63.17;;;21.20;99.90;;;;;;2594719;22;20054;-72
2022/08/26 04:19:57;;;;;;;69.72;62.88;;;21.20;99.90;;;;;;2594302;22;20007;-72
2022/08/26 04:20:57;;;;;;;73.05;66.07;;;21.20;99.90;;;;;;2594654;22;20023;-72
2022/08/26 04:21:58;;;;;;;74.05;66.47;;;21.20;99.90;;;;;;2594361;22;20386;-72
2022/08/26 04:22:59;;;;;;;71.43;64.45;;;21.20;99.90;;;;;;2594105;22;20054;-72
2022/08/26 04:23:59;;;;;;;72.72;65.70;;;21.20;99.90;;;;;;2594846;22;20356;-72
2022/08/26 04:25:01;;;;;;;73.60;66.68;;;21.20;99.90;;;;;;2594429;22;20404;-72
2022/08/26 04:26:02;;;;;;;68.50;61.97;;;21.20;99.90;;;;;;2580679;23;20106;-71
2022/08/26 04:27:03;;;;;;;74.47;67.22;;;21.20;99.90;;;;;;2580499;23;20050;-71
2022/08/26 04:28:03;;;;;;;77.43;69.72;;;21.30;99.90;;;;;;2581093;23;20012;-72
2022/08/26 04:29:07;;;;;;;77.97;70.68;;;21.30;99.90;;;;;;2581252;23;20051;-72
2022/08/26 04:30:09;;;;;;;76.85;69.40;;;21.30;99.90;;;;;;2594548;22;20423;-71
2022/08/26 04:31:13;;;;;;;73.95;66.72;;;21.30;99.90;;;;;;2594396;22;20000;-72
2022/08/26 04:32:14;;;;;;;79.63;72.00;;;21.30;99.90;;;;;;2594461;22;20022;-72
2022/08/26 04:33:15;;;;;;;78.35;70.50;;;21.30;99.90;;;;;;2593810;22;20004;-72
2022/08/26 04:34:16;;;;;;;78.85;71.30;;;21.30;99.90;;;;;;2581020;23;20487;-72
2022/08/26 04:35:17;;;;;;;82.00;73.93;;;21.30;99.90;;;;;;2581064;22;20000;-71
2022/08/26 04:36:18;;;;;;;82.13;73.82;;;21.30;99.90;;;;;;2594172;22;20070;-72
2022/08/26 04:37:18;;;;;;;80.25;72.43;;;21.30;99.90;;;;;;2594432;22;20073;-72
2022/08/26 04:38:19;;;;;;;83.82;75.13;;;21.30;99.90;;;;;;2594619;22;20049;-72
2022/08/26 04:39:20;;;;;;;84.40;76.22;;;21.30;99.90;;;;;;2594462;22;20446;-72
2022/08/26 04:40:21;;;;;;;81.00;73.25;;;21.30;99.90;;;;;;2594645;22;20326;-72
2022/08/26 04:41:22;;;;;;;83.97;75.85;;;21.30;99.90;;;;;;2594520;22;20019;-72
2022/08/26 04:42:23;;;;;;;84.07;75.88;;;21.40;99.90;;;;;;2594163;22;20017;-72
2022/08/26 04:43:29;;;;;;;82.95;75.10;;;21.40;99.90;;;;;;2594242;22;20015;-72
2022/08/26 04:44:29;;;;;;;83.35;75.57;;;21.40;99.90;;;;;;2594266;22;20074;-72
2022/08/26 04:45:30;;;;;;;83.88;75.70;;;21.40;99.90;;;;;;2594526;22;20027;-72
2022/08/26 04:46:31;;;;;;;79.57;72.03;;;21.30;99.90;;;;;;2594021;22;20332;-72
2022/08/26 04:47:32;;;;;;;81.72;73.70;;;21.40;99.90;;;;;;2593924;22;20379;-71
2022/08/26 04:48:32;;;;;;;83.05;74.43;;;21.40;99.90;;;;;;2581828;23;20012;-71
2022/08/26 04:49:33;;;;;;;85.50;76.85;;;21.40;99.90;;;;;;2581749;23;20050;-71
2022/08/26 04:50:34;;;;;;;81.47;73.35;;;21.40;99.90;;;;;;2595424;22;20007;-72
2022/08/26 04:51:35;;;;;;;76.43;68.72;;;21.40;99.90;;;;;;2595287;22;20011;-72
2022/08/26 04:52:36;;;;;;;84.10;76.00;;;21.40;99.90;;;;;;2581492;23;20465;-72
2022/08/26 04:53:36;;;;;;;81.00;73.22;;;21.40;99.90;;;;;;2581515;23;20008;-72
2022/08/26 04:54:37;;;;;;;79.47;71.88;;;21.40;99.90;;;;;;2595009;22;20053;-72
2022/08/26 04:55:38;;;;;;;82.00;74.18;;;21.40;99.90;;;;;;2594406;22;19999;-71
2022/08/26 04:56:41;;;;;;;80.22;72.35;;;21.40;99.90;;;;;;2581908;23;20040;-71
2022/08/26 04:57:42;;;;;;;72.82;65.95;;;21.50;99.90;;;;;;2581863;22;20080;-71
2022/08/26 04:58:42;;;;;;;77.93;70.30;;;21.50;99.90;;;;;;2595510;22;20098;-71
2022/08/26 04:59:43;;;;;;;77.97;70.50;;;21.50;99.90;;;;;;2581791;23;20341;-71
2022/08/26 05:00:45;;;;;;;79.90;71.78;;;21.50;99.90;;;;;;2581927;23;20052;-71
2022/08/26 05:01:49;;;;;;;79.82;72.10;;;21.50;99.90;;;;;;2581886;23;20328;-71
2022/08/26 05:02:49;;;;;;;76.80;69.32;;;21.60;99.90;;;;;;2582191;22;19992;-71
2022/08/26 05:03:50;;;;;;;78.57;70.80;;;21.60;99.90;;;;;;2594578;22;20028;-71
2022/08/26 05:04:51;;;;;;;77.05;69.47;;;21.60;99.90;;;;;;2595196;22;19995;-72
2022/08/26 05:05:52;;;;;;;74.43;67.45;;;21.60;99.90;;;;;;2594864;22;19998;-72
2022/08/26 05:06:52;;;;;;;71.57;64.47;;;21.60;99.90;;;;;;2595114;22;20031;-71
2022/08/26 05:07:53;;;;;;;76.90;69.55;;;21.60;99.90;;;;;;2595044;22;20045;-71
2022/08/26 05:08:54;;;;;;;74.57;67.30;;;21.70;99.90;;;;;;2595386;22;20037;-71
2022/08/26 05:09:54;;;;;;;75.55;68.18;;;21.70;99.90;;;;;;2595425;22;20019;-72
2022/08/26 05:10:55;;;;;;;73.88;66.32;;;21.70;99.90;;;;;;2595001;22;20003;-72
2022/08/26 05:11:56;;;;;;;74.15;66.78;;;21.70;99.90;;;;;;2595277;22;19999;-72
2022/08/26 05:12:59;;;;;;;79.75;71.88;;;21.70;99.90;;;;;;2594516;22;20027;-71
2022/08/26 05:13:59;;;;;;;75.70;68.18;;;21.80;99.90;;;;;;2569170;23;20456;-71
2022/08/26 05:15:00;;;;;;;75.00;67.57;;;21.70;99.90;;;;;;2557150;23;20418;-72
2022/08/26 05:16:10;;;;;;;76.97;69.38;;;21.80;99.90;;;;;;2581296;23;20004;-72
2022/08/26 05:17:11;;;;;;;76.95;69.43;;;21.80;99.90;;;;;;2594987;22;20097;-72
2022/08/26 05:18:13;;;;;;;75.72;68.40;;;21.80;99.90;;;;;;2595065;22;20435;-72
2022/08/26 05:19:15;;;;;;;74.30;67.30;;;21.80;99.90;;;;;;2595174;22;20000;-71
2022/08/26 05:20:16;;;;;;;74.68;67.70;;;21.80;99.90;;;;;;2594965;22;19996;-71
2022/08/26 05:21:20;;;;;;;74.93;67.85;;;21.80;99.90;;;;;;2595099;22;20088;-71
2022/08/26 05:22:21;;;;;;;75.60;68.25;;;21.80;99.90;;;;;;2595234;22;20050;-71